Ennadai, Canada
Current Conditions -  °F | °C
As of 4:00 PM on Friday 28 Nov 2014 (Local Time) from CYBQ Reporting Station
Clear Clear  
Wind Chill: -35°   Ceiling: Unl
Heat Index: -18°   Visibility: 9mi
Dew Point: -26°   Wind: 7mph
Humidity: 70%   Direction: 250°WSW
Pressure: 29.95"   Gusts: NA
Location:  61.13°N, 100.88°W
Report Text: CYBQ 282200Z AUTO 25006KT 9SM CLR M28/M32 A2995 RMK SLP184
Loading
Personal Weather Stations






























Interactive Weather Map New forecast layout! Learn more

10-Day Weather Forecast

Advertisements
Track Severe Weather on mobile